Time;durP1;ratioP1;P1;durP2;ratioP2;P2;SDS_P1;SDS_P2;PMS_P1;PMS_P2;Temp;Humidity;BMP_temperature;BMP_pressure;BME280_temperature;BME280_humidity;BME280_pressure;Samples;Min_cycle;Max_cycle;Signal;HPM_P1;HPM_P2
2022/07/06 00:01:06;;;;;;;1999.90;999.90;;;;;;;22.52;43.25;95836.09;5009174;28;20017;-74
2022/07/06 00:03:31;;;;;;;1999.90;999.90;;;;;;;22.78;43.56;95864.38;5009790;28;20121;-76
2022/07/06 00:05:56;;;;;;;1999.90;999.90;;;;;;;22.64;43.59;95840.53;5010678;28;20036;-75
2022/07/06 00:08:22;;;;;;;1999.90;999.90;;;;;;;22.67;43.42;95869.59;5008369;28;20028;-74
2022/07/06 00:10:47;;;;;;;1999.90;999.90;;;;;;;22.52;43.48;95835.28;5011854;28;20105;-74
2022/07/06 00:13:12;;;;;;;1999.90;999.90;;;;;;;22.71;43.92;95851.47;5011065;28;20406;-75
2022/07/06 00:15:38;;;;;;;1999.90;999.90;;;;;;;22.57;44.05;95845.81;5008283;28;20030;-75
2022/07/06 00:18:03;;;;;;;1999.90;999.90;;;;;;;22.41;44.25;95809.94;5030572;28;20032;-76
2022/07/06 00:20:28;;;;;;;1999.90;999.90;;;;;;;21.10;43.98;95600.78;5013485;28;20116;-74
2022/07/06 00:22:54;;;;;;;1999.90;999.90;;;;;;;22.51;44.52;95823.66;5012065;28;20045;-73
2022/07/06 00:25:19;;;;;;;1999.90;999.90;;;;;;;22.79;44.52;95864.00;5008786;28;20026;-74
2022/07/06 00:27:44;;;;;;;1999.90;999.90;;;;;;;21.92;44.68;95742.97;5010925;28;20391;-74
2022/07/06 00:30:10;;;;;;;1999.90;999.90;;;;;;;22.54;45.29;95836.50;5009418;28;20057;-75
2022/07/06 00:32:35;;;;;;;1999.90;999.90;;;;;;;22.53;45.07;95845.00;4990998;28;20114;-75
2022/07/06 00:35:00;;;;;;;1999.90;999.90;;;;;;;22.17;45.69;95801.06;5007220;28;20109;-75
2022/07/06 00:37:25;;;;;;;1999.90;999.90;;;;;;;22.47;45.46;95851.84;5026104;28;20431;-75
2022/07/06 00:39:51;;;;;;;1999.90;999.90;;;;;;;22.35;45.36;95833.88;5010626;28;20042;-74
2022/07/06 00:42:16;;;;;;;1999.90;999.90;;;;;;;22.27;45.55;95846.53;5010714;28;20165;-75
2022/07/06 00:44:41;;;;;;;1999.90;999.90;;;;;;;22.30;45.58;95851.22;5011896;28;20058;-74
2022/07/06 00:47:07;;;;;;;1999.90;999.90;;;;;;;21.98;45.75;95810.00;5005461;28;20030;-76
2022/07/06 00:52:17;;;;;;;1999.90;999.90;;;;;;;22.15;45.68;95843.19;5008793;28;20044;-75
2022/07/06 00:54:42;;;;;;;1999.90;999.90;;;;;;;22.18;46.30;95856.03;5009314;28;20034;-74
2022/07/06 00:57:08;;;;;;;1999.90;999.90;;;;;;;21.91;46.54;95826.13;5009637;28;20037;-75
2022/07/06 00:59:35;;;;;;;1999.90;999.90;;;;;;;21.80;46.47;95796.16;5009130;28;20476;-75
2022/07/06 01:02:00;;;;;;;1999.90;999.90;;;;;;;22.11;46.35;95824.19;5009936;28;20026;-74
2022/07/06 01:04:25;;;;;;;1999.90;999.90;;;;;;;22.20;46.51;95826.66;5009313;28;20116;-74
2022/07/06 01:06:51;;;;;;;1999.90;999.90;;;;;;;22.12;46.36;95828.47;5010315;28;20053;-74
2022/07/06 01:09:16;;;;;;;1999.90;999.90;;;;;;;21.83;47.23;95831.78;5010265;28;20038;-74
2022/07/06 01:11:41;;;;;;;1999.90;999.90;;;;;;;21.61;47.33;95790.00;5008541;28;20025;-74
2022/07/06 01:14:07;;;;;;;1999.90;999.90;;;;;;;21.63;47.80;95812.06;5009209;28;20022;-74
2022/07/06 01:16:33;;;;;;;1999.90;999.90;;;;;;;21.37;48.36;95802.69;5009145;28;20038;-74
2022/07/06 01:18:58;;;;;;;1999.90;999.90;;;;;;;21.40;49.15;95822.84;5009456;28;20061;-74
2022/07/06 01:21:23;;;;;;;1999.90;999.90;;;;;;;21.18;49.02;95789.13;5008153;28;20467;-74
2022/07/06 01:23:49;;;;;;;1999.90;999.90;;;;;;;21.12;49.52;95798.66;5008702;28;20104;-74
2022/07/06 01:26:19;;;;;;;1999.90;999.90;;;;;;;21.25;49.24;95825.25;5009693;28;20041;-74
2022/07/06 01:28:46;;;;;;;1999.90;999.90;;;;;;;21.24;49.35;95822.88;5009683;28;20105;-74
2022/07/06 01:31:22;;;;;;;1999.90;999.90;;;;;;;20.96;49.81;95821.16;5008468;28;20036;-75
2022/07/06 01:33:53;;;;;;;1999.90;999.90;;;;;;;20.90;49.53;95802.84;5008216;28;20034;-74
2022/07/06 01:36:20;;;;;;;1999.90;999.90;;;;;;;21.06;49.25;95811.69;5008285;28;20038;-74
2022/07/06 01:38:50;;;;;;;1999.90;999.90;;;;;;;21.08;49.01;95820.22;5006867;28;20069;-75
2022/07/06 01:41:16;;;;;;;1999.90;999.90;;;;;;;20.92;49.67;95814.09;5008608;28;20457;-74
2022/07/06 01:43:41;;;;;;;1999.90;999.90;;;;;;;20.66;49.41;95785.72;5008622;28;20056;-75
2022/07/06 01:46:07;;;;;;;1999.90;999.90;;;;;;;20.29;50.24;95785.25;5009089;28;20022;-74
2022/07/06 01:48:32;;;;;;;1999.90;999.90;;;;;;;20.50;49.85;95788.47;5007252;28;20041;-74
2022/07/06 01:50:58;;;;;;;1999.90;999.90;;;;;;;20.80;49.80;95825.03;5023512;23;20034;-71
2022/07/06 01:53:23;;;;;;;1999.90;999.90;;;;;;;20.65;49.69;95802.31;5013337;28;20124;-72
2022/07/06 01:55:49;;;;;;;1999.90;999.90;;;;;;;20.74;49.51;95800.19;5040068;28;20027;-70
2022/07/06 01:58:14;;;;;;;1999.90;999.90;;;;;;;20.93;49.60;95829.16;5046308;28;20180;-71
2022/07/06 02:00:39;;;;;;;1999.90;999.90;;;;;;;20.70;49.97;95800.09;5035338;28;20097;-71
2022/07/06 02:03:05;;;;;;;1999.90;999.90;;;;;;;20.84;49.79;95809.69;5051573;28;20427;-71
2022/07/06 02:05:30;;;;;;;1999.90;999.90;;;;;;;20.82;49.93;95823.53;5033477;28;20131;-69
2022/07/06 02:07:55;;;;;;;1999.90;999.90;;;;;;;20.71;49.84;95809.00;5055570;28;20033;-72
2022/07/06 02:10:21;;;;;;;1999.90;999.90;;;;;;;20.77;50.42;95821.88;5045540;28;20178;-72
2022/07/06 02:12:47;;;;;;;1999.90;999.90;;;;;;;20.66;50.50;95807.34;5028679;28;20108;-72
2022/07/06 02:15:12;;;;;;;1999.90;999.90;;;;;;;20.64;50.33;95825.84;5043736;28;20032;-72
2022/07/06 02:17:37;;;;;;;1999.90;999.90;;;;;;;20.53;50.50;95803.22;5057869;28;20405;-72
2022/07/06 02:20:04;;;;;;;1999.90;999.90;;;;;;;20.66;50.35;95826.28;5038850;28;20030;-71
2022/07/06 02:22:30;;;;;;;1999.90;999.90;;;;;;;20.62;50.37;95827.31;5047616;28;20508;-70
2022/07/06 02:24:55;;;;;;;1999.90;999.90;;;;;;;20.58;50.46;95835.38;5055106;28;20029;-72
2022/07/06 02:27:20;;;;;;;1999.90;999.90;;;;;;;20.59;50.58;95836.94;5047629;28;20429;-72
2022/07/06 02:29:46;;;;;;;1999.90;999.90;;;;;;;20.35;50.80;95813.56;5046692;28;20056;-72
2022/07/06 02:32:11;;;;;;;1999.90;999.90;;;;;;;20.46;51.04;95838.94;5045657;28;20445;-72
2022/07/06 02:34:36;;;;;;;1999.90;999.90;;;;;;;20.26;51.35;95818.34;5040059;28;20021;-71
2022/07/06 02:37:02;;;;;;;1999.90;999.90;;;;;;;20.15;51.50;95809.22;5033427;28;20071;-71
2022/07/06 02:39:27;;;;;;;1999.90;999.90;;;;;;;20.17;51.51;95815.84;5048250;28;20032;-71
2022/07/06 02:41:52;;;;;;;1999.90;999.90;;;;;;;20.27;51.64;95838.84;5059906;28;20098;-71
2022/07/06 02:44:18;;;;;;;1999.90;999.90;;;;;;;20.20;51.68;95830.56;5043714;28;20392;-71
2022/07/06 02:46:43;;;;;;;1999.90;999.90;;;;;;;20.26;51.92;95840.75;5047866;28;20399;-71
2022/07/06 02:49:08;;;;;;;1999.90;999.90;;;;;;;20.20;52.05;95838.66;5048706;28;20071;-71
2022/07/06 02:51:34;;;;;;;1999.90;999.90;;;;;;;20.10;52.55;95822.97;5049144;28;20087;-71
2022/07/06 02:53:59;;;;;;;1999.90;999.90;;;;;;;20.15;52.83;95847.81;5049179;28;20020;-71
2022/07/06 02:56:24;;;;;;;1999.90;999.90;;;;;;;19.97;52.86;95824.97;5052135;28;20370;-72
2022/07/06 02:58:50;;;;;;;1999.90;999.90;;;;;;;19.96;53.26;95843.09;5051330;28;20067;-71
2022/07/06 03:01:15;;;;;;;1999.90;999.90;;;;;;;19.89;53.53;95837.50;5050943;28;20032;-71
2022/07/06 03:03:40;;;;;;;1999.90;999.90;;;;;;;19.88;54.09;95840.56;5051767;28;20671;-72
2022/07/06 03:06:06;;;;;;;1999.90;999.90;;;;;;;19.76;54.34;95829.81;5046645;28;20040;-71
2022/07/06 03:08:31;;;;;;;1999.90;999.90;;;;;;;19.68;54.65;95831.53;5051284;28;20025;-71
2022/07/06 03:10:56;;;;;;;1999.90;999.90;;;;;;;19.76;54.81;95854.09;5032863;28;20033;-71
2022/07/06 03:13:22;;;;;;;1999.90;999.90;;;;;;;19.62;55.44;95832.94;5051010;28;20461;-71
2022/07/06 03:15:47;;;;;;;1999.90;999.90;;;;;;;19.55;55.38;95836.19;5052613;28;20049;-72
2022/07/06 03:18:13;;;;;;;1999.90;999.90;;;;;;;19.31;55.46;95798.53;5051001;28;20025;-72
2022/07/06 03:20:38;;;;;;;1999.90;999.90;;;;;;;19.64;55.53;95861.13;5052319;28;20082;-71
2022/07/06 03:23:03;;;;;;;1999.90;999.90;;;;;;;19.47;55.86;95834.41;5035511;28;20029;-72
2022/07/06 03:25:29;;;;;;;1999.90;999.90;;;;;;;19.55;55.71;95846.19;5043433;28;20383;-71
2022/07/06 03:27:54;;;;;;;1999.90;999.90;;;;;;;19.61;56.02;95859.13;5031528;28;20454;-71
2022/07/06 03:30:19;;;;;;;1999.90;999.90;;;;;;;19.52;55.87;95844.97;5041411;28;20078;-72
2022/07/06 03:32:45;;;;;;;1999.90;999.90;;;;;;;19.56;55.98;95845.84;5050705;28;20532;-71
2022/07/06 03:35:10;;;;;;;1999.90;999.90;;;;;;;19.53;56.12;95841.13;5049672;28;20095;-72
2022/07/06 03:37:35;;;;;;;1999.90;999.90;;;;;;;19.62;56.05;95855.31;5038382;28;20064;-71
2022/07/06 03:40:01;;;;;;;1999.90;999.90;;;;;;;19.54;56.15;95837.31;5040995;28;20020;-71
2022/07/06 03:42:26;;;;;;;1999.90;999.90;;;;;;;19.39;56.45;95811.06;5051024;28;20021;-71
2022/07/06 03:44:51;;;;;;;1999.90;999.90;;;;;;;19.52;56.14;95828.00;5051886;28;20024;-71
2022/07/06 03:47:17;;;;;;;1999.90;999.90;;;;;;;19.53;56.23;95834.97;5050703;28;20524;-72
2022/07/06 03:49:42;;;;;;;1999.90;999.90;;;;;;;19.60;56.11;95830.56;5049643;28;20044;-71
2022/07/06 03:52:07;;;;;;;1999.90;999.90;;;;;;;19.60;56.12;95832.47;5049463;28;20485;-71
2022/07/06 03:54:32;;;;;;;1999.90;999.90;;;;;;;19.58;56.17;95822.00;5051845;28;20025;-71
2022/07/06 03:56:58;;;;;;;1999.90;999.90;;;;;;;19.76;56.12;95848.69;5047608;28;20264;-71
2022/07/06 03:59:23;;;;;;;1999.90;999.90;;;;;;;19.66;56.17;95831.13;5067964;28;20447;-70
2022/07/06 04:01:49;;;;;;;1999.90;999.90;;;;;;;19.91;56.02;95867.66;5048821;28;20033;-70
2022/07/06 04:04:14;;;;;;;1999.90;999.90;;;;;;;19.70;55.56;95803.06;5051395;28;20029;-70
2022/07/06 04:06:39;;;;;;;1999.90;999.90;;;;;;;20.14;55.58;95842.75;5048783;28;20143;-70
2022/07/06 04:09:05;;;;;;;1999.90;999.90;;;;;;;20.46;54.67;95833.53;5051961;28;20033;-70
2022/07/06 04:11:30;;;;;;;1999.90;999.90;;;;;;;20.80;53.88;95850.16;5048737;28;20040;-71
2022/07/06 04:13:55;;;;;;;1999.90;999.90;;;;;;;21.14;53.32;95853.19;5047064;28;20164;-71
2022/07/06 04:16:20;;;;;;;1999.90;999.90;;;;;;;21.28;52.65;95862.38;5046203;28;20162;-71
2022/07/06 04:18:46;;;;;;;1999.90;999.90;;;;;;;21.33;52.27;95860.56;5050627;28;20056;-71
2022/07/06 04:21:11;;;;;;;1999.90;999.90;;;;;;;21.45;52.43;95874.00;5047803;28;20046;-70
2022/07/06 04:23:37;;;;;;;1999.90;999.90;;;;;;;21.24;52.49;95858.84;5031689;28;20040;-72
2022/07/06 04:26:02;;;;;;;1999.90;999.90;;;;;;;21.24;52.69;95855.34;5031182;28;20032;-72
2022/07/06 04:28:27;;;;;;;1999.90;999.90;;;;;;;21.29;52.63;95865.88;5030669;28;20032;-72
2022/07/06 04:30:53;;;;;;;1999.90;999.90;;;;;;;20.84;52.76;95810.47;5043342;28;20032;-72
2022/07/06 04:33:18;;;;;;;1999.90;999.90;;;;;;;21.08;52.77;95839.16;5049912;28;20137;-72
2022/07/06 04:35:43;;;;;;;1999.90;999.90;;;;;;;21.36;52.90;95868.00;5049561;28;20043;-72
2022/07/06 04:38:09;;;;;;;1999.90;999.90;;;;;;;21.56;53.23;95883.09;5049691;28;20029;-72
2022/07/06 04:40:34;;;;;;;1999.90;999.90;;;;;;;21.76;52.39;95881.19;5030462;28;20378;-72
2022/07/06 04:42:59;;;;;;;1999.90;999.90;;;;;;;21.68;52.65;95863.22;5030151;28;20117;-72
2022/07/06 04:45:25;;;;;;;1999.90;999.90;;;;;;;21.95;52.36;95883.06;5045661;28;20051;-72
2022/07/06 04:47:50;;;;;;;1999.90;999.90;;;;;;;22.06;51.92;95867.81;5048896;28;20033;-72
2022/07/06 04:50:16;;;;;;;1999.90;999.90;;;;;;;22.14;52.01;95868.75;5049484;28;20120;-72
2022/07/06 04:52:41;;;;;;;1999.90;999.90;;;;;;;22.31;51.70;95870.97;5033461;28;20030;-72
2022/07/06 04:55:08;;;;;;;1999.90;999.90;;;;;;;22.40;51.60;95870.72;5060761;28;20032;-72
2022/07/06 04:57:34;;;;;;;1999.90;999.90;;;;;;;22.53;50.71;95853.91;5031642;28;20026;-72
2022/07/06 04:59:59;;;;;;;1999.90;999.90;;;;;;;22.74;50.18;95849.97;5050239;28;20075;-71
2022/07/06 05:02:24;;;;;;;1999.90;999.90;;;;;;;22.80;49.93;95843.88;5047475;28;20087;-72
2022/07/06 05:04:50;;;;;;;1999.90;999.90;;;;;;;23.08;49.72;95867.13;5039373;28;20025;-72
2022/07/06 05:07:15;;;;;;;1999.90;999.90;;;;;;;23.25;48.26;95871.25;5042563;28;20033;-72
2022/07/06 05:09:41;;;;;;;1999.90;999.90;;;;;;;23.50;47.70;95850.66;5050073;28;20044;-71
2022/07/06 05:12:07;;;;;;;1999.90;999.90;;;;;;;23.70;47.38;95826.84;5050137;28;20029;-72
2022/07/06 05:14:33;;;;;;;1999.90;999.90;;;;;;;23.94;46.02;95874.44;5047819;28;20531;-72
2022/07/06 05:16:58;;;;;;;1999.90;999.90;;;;;;;23.59;45.87;95856.56;5049829;28;20028;-72
2022/07/06 05:19:23;;;;;;;1999.90;999.90;;;;;;;24.00;44.91;95845.00;5048301;28;20025;-73
2022/07/06 05:21:49;;;;;;;1999.90;999.90;;;;;;;23.58;45.72;95874.00;5038577;28;20391;-73
2022/07/06 05:24:15;;;;;;;1999.90;999.90;;;;;;;23.45;45.55;95872.69;5032699;28;20029;-72
2022/07/06 05:26:41;;;;;;;1999.90;999.90;;;;;;;23.04;46.18;95855.47;5030711;28;20032;-72
2022/07/06 05:29:06;;;;;;;1999.90;999.90;;;;;;;23.12;46.80;95884.25;5039560;28;20052;-72
2022/07/06 05:31:31;;;;;;;1999.90;999.90;;;;;;;22.82;47.52;95865.19;5049046;28;20025;-71
2022/07/06 05:33:56;;;;;;;1999.90;999.90;;;;;;;22.98;46.50;95860.44;5049300;28;20029;-74
2022/07/06 05:36:22;;;;;;;1999.90;999.90;;;;;;;22.49;47.73;95857.72;5030980;28;20029;-71
2022/07/06 05:38:47;;;;;;;1999.90;999.90;;;;;;;22.89;47.00;95870.75;5047947;28;20048;-71
2022/07/06 05:41:12;;;;;;;1999.90;999.90;;;;;;;23.58;46.04;95894.94;5049622;28;20032;-72
2022/07/06 05:43:38;;;;;;;1999.90;999.90;;;;;;;23.12;46.45;95873.41;5048073;28;20531;-72
2022/07/06 05:46:04;;;;;;;1999.90;999.90;;;;;;;23.28;46.29;95882.16;5048156;28;20100;-72
2022/07/06 05:51:13;;;;;;;1999.90;999.90;;;;;;;23.17;46.84;95910.31;5047012;28;20039;-72
2022/07/06 05:53:39;;;;;;;1999.90;999.90;;;;;;;23.09;46.71;95902.06;5031972;28;20037;-72
2022/07/06 05:56:04;;;;;;;1999.90;999.90;;;;;;;22.64;47.11;95875.78;5047601;28;20104;-73
2022/07/06 05:58:29;;;;;;;1999.90;999.90;;;;;;;22.21;48.72;95872.34;5049210;28;20025;-71
2022/07/06 06:00:55;;;;;;;1999.90;999.90;;;;;;;22.03;49.00;95890.97;5047349;28;20025;-72
2022/07/06 06:03:20;;;;;;;1999.90;999.90;;;;;;;21.64;50.09;95911.09;5048397;28;20054;-73
2022/07/06 06:05:45;;;;;;;1999.90;999.90;;;;;;;21.49;49.63;95888.34;5043322;28;20074;-73
2022/07/06 06:08:11;;;;;;;1999.90;999.90;;;;;;;21.66;49.34;95885.25;5061587;28;20025;-73
2022/07/06 06:10:36;;;;;;;1999.90;999.90;;;;;;;21.53;49.14;95894.63;5047658;28;20367;-73
2022/07/06 06:13:02;;;;;;;1999.90;999.90;;;;;;;21.88;48.84;95920.84;5048918;28;20377;-72
2022/07/06 06:15:27;;;;;;;1999.90;999.90;;;;;;;20.86;51.31;95896.63;5034076;28;20470;-73
2022/07/06 06:17:52;;;;;;;1999.90;999.90;;;;;;;20.81;51.46;95921.22;5044070;28;20356;-72
2022/07/06 06:20:18;;;;;;;1999.90;999.90;;;;;;;21.31;50.88;95925.09;5030239;28;20039;-72
2022/07/06 06:22:51;;;;;;;1999.90;999.90;;;;;;;21.40;49.87;95923.00;5047884;28;20617;-69
2022/07/06 06:25:21;;;;;;;1999.90;999.90;;;;;;;21.11;50.31;95903.38;5027970;28;20455;-69
2022/07/06 06:27:47;;;;;;;1999.90;999.90;;;;;;;20.93;50.78;95913.78;5041818;28;20025;-70
2022/07/06 06:30:13;;;;;;;1999.90;999.90;;;;;;;21.16;49.66;95922.06;5046752;28;20036;-70
2022/07/06 06:32:39;;;;;;;1999.90;999.90;;;;;;;21.64;48.62;95895.63;5045517;28;20470;-69
2022/07/06 06:35:06;;;;;;;1999.90;999.90;;;;;;;21.30;48.86;95913.50;5048658;28;20048;-75
2022/07/06 06:37:31;;;;;;;1999.90;999.90;;;;;;;21.24;48.82;95894.03;5046534;28;20040;-74
2022/07/06 06:39:59;;;;;;;1999.90;999.90;;;;;;;21.37;47.87;95913.63;5049119;28;20043;-75
2022/07/06 06:42:24;;;;;;;1999.90;999.90;;;;;;;21.36;47.40;95922.91;5048145;28;20065;-74
2022/07/06 06:44:51;;;;;;;1999.90;999.90;;;;;;;21.21;48.29;95927.19;5046643;28;20067;-74
2022/07/06 06:47:16;;;;;;;1999.90;999.90;;;;;;;21.27;48.16;95901.41;5047766;28;20037;-74
2022/07/06 06:49:42;;;;;;;1999.90;999.90;;;;;;;21.62;46.75;95925.00;5037284;28;21569;-73
2022/07/06 06:52:07;;;;;;;1999.90;999.90;;;;;;;21.52;47.66;95915.50;5044675;28;20033;-72
2022/07/06 06:54:34;;;;;;;1999.90;999.90;;;;;;;21.51;47.55;95911.25;5040766;28;20029;-74
2022/07/06 06:56:59;;;;;;;1999.90;999.90;;;;;;;21.88;47.41;95918.94;5030523;28;20070;-73
2022/07/06 06:59:24;;;;;;;1999.90;999.90;;;;;;;21.91;46.98;95918.22;5043065;28;20029;-72
2022/07/06 07:01:50;;;;;;;1999.90;999.90;;;;;;;21.98;46.53;95895.91;5045745;28;20024;-73
2022/07/06 07:04:15;;;;;;;1999.90;999.90;;;;;;;21.27;47.34;95912.25;5047420;28;20090;-72
2022/07/06 07:06:40;;;;;;;1999.90;999.90;;;;;;;21.62;46.71;95903.34;5042639;28;20529;-74
2022/07/06 07:09:06;;;;;;;1999.90;999.90;;;;;;;21.17;47.15;95915.50;5034162;28;20039;-74
2022/07/06 07:11:31;;;;;;;1999.90;999.90;;;;;;;21.82;46.59;95896.00;5040080;28;20029;-74
2022/07/06 07:13:57;;;;;;;1999.90;999.90;;;;;;;21.55;47.37;95919.44;5041988;28;20060;-73
2022/07/06 07:16:24;;;;;;;1999.90;999.90;;;;;;;22.20;45.70;95910.66;5043795;28;20374;-75
2022/07/06 07:18:51;;;;;;;1999.90;999.90;;;;;;;22.49;45.29;95914.66;5042914;28;20021;-74
2022/07/06 07:21:16;;;;;;;1999.90;999.90;;;;;;;22.35;44.65;95911.69;5039525;28;20147;-74
2022/07/06 07:23:42;;;;;;;1999.90;999.90;;;;;;;22.82;43.73;95914.78;5048020;28;20036;-74
2022/07/06 07:26:07;;;;;;;1999.90;999.90;;;;;;;22.33;44.47;95898.50;5046905;28;20058;-74
2022/07/06 07:28:32;;;;;;;1999.90;999.90;;;;;;;22.68;43.73;95914.59;5044861;28;20029;-75
2022/07/06 07:30:58;;;;;;;1999.90;999.90;;;;;;;23.29;42.50;95893.81;5043433;28;20025;-73
2022/07/06 07:33:23;;;;;;;1999.90;999.90;;;;;;;22.60;42.74;95868.72;5044460;28;20028;-70
2022/07/06 07:35:48;;;;;;;1999.90;999.90;;;;;;;23.19;42.36;95916.94;5045360;28;20465;-74
2022/07/06 07:38:14;;;;;;;1999.90;999.90;;;;;;;22.63;42.63;95919.53;5043844;28;20040;-74
2022/07/06 07:40:39;;;;;;;1999.90;999.90;;;;;;;23.49;41.44;95919.69;5036397;28;20462;-73
2022/07/06 07:43:04;;;;;;;1999.90;999.90;;;;;;;22.63;40.69;95911.41;5047930;28;20445;-73
2022/07/06 07:45:29;;;;;;;1999.90;999.90;;;;;;;23.09;40.46;95885.00;5046624;28;20617;-74
2022/07/06 07:47:55;;;;;;;1999.90;999.90;;;;;;;22.70;41.51;95906.88;5048243;28;20033;-71
2022/07/06 07:50:20;;;;;;;1999.90;999.90;;;;;;;22.63;42.03;95890.50;5050117;28;20037;-73
2022/07/06 07:52:46;;;;;;;1999.90;999.90;;;;;;;23.18;42.01;95907.22;5050709;28;20462;-72
2022/07/06 07:55:11;;;;;;;1999.90;999.90;;;;;;;22.86;40.47;95898.59;5034076;28;20053;-74
2022/07/06 07:57:37;;;;;;;1999.90;999.90;;;;;;;22.52;40.62;95884.09;5042976;28;20397;-74
2022/07/06 08:00:04;;;;;;;1999.90;999.90;;;;;;;22.25;41.65;95907.63;5041000;28;20033;-68
2022/07/06 08:02:29;;;;;;;1999.90;999.90;;;;;;;22.02;40.60;95913.78;5053627;28;20040;-70
2022/07/06 08:04:55;;;;;;;1999.90;999.90;;;;;;;22.48;40.87;95888.69;5051074;28;20543;-70
2022/07/06 08:07:20;;;;;;;1999.90;999.90;;;;;;;22.25;41.49;95886.75;5051867;28;20065;-70
2022/07/06 08:09:45;;;;;;;1999.90;999.90;;;;;;;22.18;41.63;95904.81;5038328;28;20517;-72
2022/07/06 08:12:10;;;;;;;1999.90;999.90;;;;;;;21.87;42.54;95876.75;5034199;28;20474;-70
2022/07/06 08:14:37;;;;;;;1999.90;999.90;;;;;;;21.91;43.33;95879.53;5051438;28;20121;-68
2022/07/06 08:17:03;;;;;;;1999.90;999.90;;;;;;;22.48;42.40;95910.38;5051153;28;20032;-72
2022/07/06 08:19:30;;;;;;;1999.90;999.90;;;;;;;22.41;43.24;95899.41;5044201;28;20116;-69
2022/07/06 08:21:55;;;;;;;1999.90;999.90;;;;;;;21.94;43.15;95897.75;5037456;28;20025;-72
2022/07/06 08:24:21;;;;;;;1999.90;999.90;;;;;;;22.45;42.88;95917.28;5077980;28;20690;-71
2022/07/06 08:26:46;;;;;;;1999.90;999.90;;;;;;;22.86;42.36;95935.78;5051158;28;20461;-70
2022/07/06 08:29:12;;;;;;;1999.90;999.90;;;;;;;22.50;42.58;95938.69;5050973;28;20049;-72
2022/07/06 08:31:37;;;;;;;1999.90;999.90;;;;;;;22.71;42.60;95940.97;5048366;28;20474;-68
2022/07/06 08:34:03;;;;;;;1999.90;999.90;;;;;;;22.66;42.16;95846.34;5046453;28;20457;-72
2022/07/06 08:36:28;;;;;;;1999.90;999.90;;;;;;;22.78;43.05;95913.97;5049396;28;20033;-71
2022/07/06 08:38:54;;;;;;;1999.90;999.90;;;;;;;23.20;42.36;95932.06;5031622;28;20391;-69
2022/07/06 08:41:22;;;;;;;1999.90;999.90;;;;;;;22.93;42.04;95925.06;5032141;28;20025;-70
2022/07/06 08:43:49;;;;;;;1999.90;999.90;;;;;;;23.04;41.79;95893.47;5032276;28;20033;-70
2022/07/06 08:46:15;;;;;;;1999.90;999.90;;;;;;;22.90;42.79;95913.03;5046253;28;20029;-69
2022/07/06 08:48:41;;;;;;;1999.90;999.90;;;;;;;23.41;41.21;95912.59;5050470;28;20462;-70
2022/07/06 08:51:07;;;;;;;1999.90;999.90;;;;;;;23.22;41.41;95891.00;5051559;28;20029;-70
2022/07/06 08:53:33;;;;;;;1999.90;999.90;;;;;;;22.93;40.44;95936.72;5050664;28;20159;-69
2022/07/06 08:55:59;;;;;;;1999.90;999.90;;;;;;;22.94;41.37;95927.44;5031029;28;20030;-71
2022/07/06 08:58:27;;;;;;;1999.90;999.90;;;;;;;23.26;41.26;95927.88;5044353;28;20497;-72
2022/07/06 09:00:54;;;;;;;1999.90;999.90;;;;;;;23.47;41.33;95934.75;5050002;28;20021;-70
2022/07/06 09:03:20;;;;;;;1999.90;999.90;;;;;;;23.58;39.59;95932.97;5046070;28;20449;-70
2022/07/06 09:05:46;;;;;;;1999.90;999.90;;;;;;;22.84;39.21;95928.78;5049009;28;20043;-70
2022/07/06 09:08:12;;;;;;;1999.90;999.90;;;;;;;22.89;40.43;95944.00;5049409;28;20052;-70
2022/07/06 09:10:37;;;;;;;1999.90;999.90;;;;;;;23.56;38.62;95940.72;5034192;28;20090;-71
2022/07/06 09:13:08;;;;;;;1999.90;999.90;;;;;;;23.40;41.17;95938.19;5040105;28;20029;-67
2022/07/06 09:15:35;;;;;;;1999.90;999.90;;;;;;;24.26;40.41;95944.66;5036678;28;20164;-71
2022/07/06 09:18:02;;;;;;;1999.90;999.90;;;;;;;23.95;39.00;95918.69;5041997;28;20021;-71
2022/07/06 09:20:28;;;;;;;1999.90;999.90;;;;;;;23.77;39.65;95937.50;5049566;28;20098;-71
2022/07/06 09:23:01;;;;;;;1999.90;999.90;;;;;;;24.47;39.12;95941.41;5049674;28;20078;-71
2022/07/06 09:25:27;;;;;;;1999.90;999.90;;;;;;;23.62;39.01;95944.66;5048628;28;20033;-71
2022/07/06 09:27:54;;;;;;;1999.90;999.90;;;;;;;24.21;37.38;95950.44;5033112;28;20044;-72
2022/07/06 09:30:24;;;;;;;1999.90;999.90;;;;;;;24.95;36.05;95925.09;5033043;28;20646;-70
2022/07/06 09:32:52;;;;;;;1999.90;999.90;;;;;;;24.33;37.09;95923.78;5046236;28;20029;-70
2022/07/06 09:35:22;;;;;;;1999.90;999.90;;;;;;;24.31;37.72;95950.56;5047497;28;20024;-72
2022/07/06 09:37:59;;;;;;;1999.90;999.90;;;;;;;24.10;37.69;95955.75;5044325;28;20036;-70
2022/07/06 09:40:25;;;;;;;1999.90;999.90;;;;;;;24.50;37.03;95954.25;5036303;28;20025;-70
2022/07/06 09:42:50;;;;;;;1999.90;999.90;;;;;;;25.12;36.88;95917.09;5030639;28;20032;-72
2022/07/06 09:45:20;;;;;;;1999.90;999.90;;;;;;;25.19;35.32;95949.03;5034318;28;20114;-72
2022/07/06 09:47:49;;;;;;;1999.90;999.90;;;;;;;24.52;36.09;95954.69;5042488;28;20470;-73
2022/07/06 09:50:16;;;;;;;1999.90;999.90;;;;;;;24.35;35.52;95948.66;5046765;28;20473;-72
2022/07/06 09:52:52;;;;;;;1999.90;999.90;;;;;;;24.59;36.30;95933.75;5043251;28;20033;-72
2022/07/06 09:55:17;;;;;;;1999.90;999.90;;;;;;;24.36;36.10;95939.38;5042591;28;20025;-72
2022/07/06 09:57:53;;;;;;;1999.90;999.90;;;;;;;24.75;36.20;95949.03;5050191;28;20066;-73
2022/07/06 10:00:19;;;;;;;1999.90;999.90;;;;;;;25.57;34.97;95944.19;5049222;28;20040;-71
2022/07/06 10:02:46;;;;;;;1999.90;999.90;;;;;;;24.83;35.88;95924.25;5042330;28;20021;-71
2022/07/06 10:05:13;;;;;;;1999.90;999.90;;;;;;;25.04;35.72;95948.13;5030298;28;20030;-71
2022/07/06 10:07:39;;;;;;;1999.90;999.90;;;;;;;24.76;35.54;95937.78;5029905;28;20026;-71
2022/07/06 10:10:05;;;;;;;1999.90;999.90;;;;;;;25.79;35.37;95945.09;5034695;28;20485;-71
2022/07/06 10:12:31;;;;;;;1999.90;999.90;;;;;;;25.54;36.61;95942.22;5048806;28;20040;-71
2022/07/06 10:14:56;;;;;;;1999.90;999.90;;;;;;;25.14;36.00;95928.41;5049059;28;20374;-71
2022/07/06 10:17:22;;;;;;;1999.90;999.90;;;;;;;25.63;36.63;95929.81;5048847;28;20508;-72
2022/07/06 10:19:50;;;;;;;1999.90;999.90;;;;;;;26.38;35.15;95943.75;5030152;28;20115;-72
2022/07/06 10:22:17;;;;;;;1999.90;999.90;;;;;;;25.75;36.33;95941.63;5029539;28;20026;-72
2022/07/06 10:24:43;;;;;;;1999.90;999.90;;;;;;;25.77;35.90;95918.25;5030918;28;20032;-70
2022/07/06 10:27:10;;;;;;;1999.90;999.90;;;;;;;26.85;34.24;95911.06;5047391;28;20039;-71
2022/07/06 10:29:36;;;;;;;1999.90;999.90;;;;;;;25.61;34.88;95879.63;5049805;28;20039;-71
2022/07/06 10:32:02;;;;;;;1999.90;999.90;;;;;;;25.57;34.55;95927.84;5049378;28;20021;-70
2022/07/06 10:34:27;;;;;;;1999.90;999.90;;;;;;;24.87;36.25;95916.09;5032342;28;20032;-71
2022/07/06 10:36:54;;;;;;;1999.90;999.90;;;;;;;24.89;35.43;95890.09;5046661;28;20024;-70
2022/07/06 10:42:40;;;;;;;1999.90;999.90;;;;;;;25.64;34.25;95936.88;5029902;28;20494;-70
2022/07/06 10:45:06;;;;;;;1999.90;999.90;;;;;;;25.12;35.98;95911.63;5043574;28;20041;-70
2022/07/06 10:47:31;;;;;;;1999.90;999.90;;;;;;;24.60;35.37;95910.06;5048221;28;20756;-69
2022/07/06 10:50:00;;;;;;;1999.90;999.90;;;;;;;25.03;35.38;95915.81;5047676;28;20108;-70
2022/07/06 10:52:51;;;;;;;1999.90;999.90;;;;;;;25.26;35.17;95938.19;5045994;28;20040;-70
2022/07/06 10:55:31;;;;;;;1999.90;999.90;;;;;;;25.72;34.73;95924.03;5032833;28;20041;-69
2022/07/06 10:57:57;;;;;;;1999.90;999.90;;;;;;;25.92;34.03;95917.13;5048048;28;20035;-69